Lester Pr, Minnesota
Current Conditions -  °F | °C
As of 12:34 AM on Friday 31 Oct 2014 (Local Time) from KGYL Reporting Station
Clear Clear  
Wind Chill: 23°   Ceiling: Unl
Heat Index: 32°   Visibility: 10mi
Dew Point: 15°   Wind: 12mph
Humidity: 50%   Direction: 340°NNW
Pressure: 30.41"   Gusts: 22mph
Location:  44.8552°N, 94.071°W
Report Text: KGYL 310534Z AUTO 34010G19KT 10SM CLR 00/M09 A3041 RMK AO2 T00001093
Loading
Personal Weather Stations






























Interactive Weather Map
Tropical Storm Tracking
New forecast layout! Learn more

10-Day Weather Forecast

Advertisements
Track Severe Weather on mobile